الصفحة الرئيسية
METAR-TAF:

METAR-TAF

مطار :

Ishigaki, اليابان

دائرة عرض: 24-20N, خط طول: 124-10E, ارتفاع: 6 متر

مراقبة الطقس الحالي

تاريخ ووقت الإصدار 26 دقيقة قبل الساعة 00:00UTC
ريح 7 عقدة من الجنوب/الجنوب الغربي
درجة الحرارة 29°درجة مئوية
الرطوبة 94%
ضغط 1009 hPa
الرؤية 10 كم أو أكثر
غيوم متفرقة على ارتفاع 1100 قدم
غيوم مفككة
زخات في الجوار,

METAR: ROIG 180000Z 21007KT 9999 VCSH SCT011 BKN/// 29/28 Q1009

زمن: 09:26 (00:26 UTC)

توقعات

تاريخ ووقت الإصدار 1ساعة و 21 دقيقة قبل الساعة 23:05UTC
التوقعات صالحة من18 الساعة 00 UTC إلى 19 الساعة 06 UTC
ريح 10 عقدة من الجنوب/الجنوب الغربي
الرؤية 10 كم أو أكثر
غيوم قليلة على ارتفاع 800 قدم
غيوم مفككة على ارتفاع 1500 قدم
مؤقت
من 18 الساعة 12 UTC إلى 18 الساعة 21 UTC
غيوم قليلة على ارتفاع 400 قدم
غيوم مفككة على ارتفاع 800 قدم

TAF: ROIG 172305Z 1800/1906 21010KT 9999 FEW008 BKN015 TEMPO 1812/1821 FEW004 BKN008

أرصاد الطقس والتوقعات من أكثر من 4000 مطار (تقارير الطقس للمطار METAR والتنبؤ بالطقس بالمطارTAF).

المحطات المتاحة هي النقط الصفراء والحمراء على الخريطة.

حرك المؤشر فوق النقطة لمعرفة اسم المحطة.

ثم انقر لمعرفة أرصاد وتوقعات الطقس.

لتغيير الخارطة: اضغط على الأزرار الخضراء مع رمز الصليب الأسود للتكبير. على الزر الأخضر مع شرطة للتصغير، أو على الأسهم الخضراء للخرائط المجاورة.


METAR-TAF: